createdAt,value
2019-02-26T00:07:16.269Z,5.73
2019-02-26T00:17:17.465Z,5.23
2019-02-26T00:27:18.537Z,5.27
2019-02-26T00:37:28.454Z,4.87
2019-02-26T00:47:33.804Z,3.97
2019-02-26T00:57:36.492Z,4.23
2019-02-26T01:07:36.699Z,3.30
2019-02-26T01:17:39.596Z,4.07
2019-02-26T01:27:43.199Z,4.33
2019-02-26T01:37:43.059Z,5.37
2019-02-26T01:47:47.646Z,4.20
2019-02-26T01:57:46.636Z,4.77
2019-02-26T02:07:49.577Z,3.90
2019-02-26T02:17:50.718Z,4.30
2019-02-26T02:27:54.474Z,3.93
2019-02-26T02:37:57.088Z,3.93
2019-02-26T02:48:00.399Z,4.87
2019-02-26T02:58:03.429Z,4.17
2019-02-26T03:08:13.398Z,4.77
2019-02-26T03:18:14.857Z,4.27
2019-02-26T03:28:16.597Z,4.60
2019-02-26T03:38:22.932Z,4.90
2019-02-26T03:48:25.287Z,4.40
2019-02-26T03:58:26.102Z,4.47
2019-02-26T04:08:29.965Z,3.83
2019-02-26T04:18:34.152Z,4.03
2019-02-26T04:28:37.197Z,5.63
2019-02-26T04:39:03.521Z,4.97
2019-02-26T04:49:07.300Z,4.30
2019-02-26T04:59:09.829Z,4.60
2019-02-26T05:09:17.829Z,2.87
2019-02-26T05:19:21.549Z,4.60
2019-02-26T05:29:21.351Z,3.80
2019-02-26T05:39:24.210Z,4.40
2019-02-26T05:49:34.388Z,3.87
2019-02-26T05:59:33.957Z,4.53
2019-02-26T06:19:49.149Z,3.83
2019-02-26T06:29:52.878Z,3.97
2019-02-26T06:39:54.819Z,3.40
2019-02-26T06:50:02.766Z,4.40
2019-02-26T07:00:20.995Z,4.50
2019-02-26T07:10:24.321Z,4.37
2019-02-26T07:20:39.969Z,4.47
2019-02-26T07:30:44.144Z,4.27
2019-02-26T07:40:44.605Z,12.53
2019-02-26T07:50:48.171Z,9.43
2019-02-26T08:00:52.452Z,4.60
2019-02-26T08:10:53.374Z,3.67
2019-02-26T08:21:03.016Z,3.73
2019-02-26T08:31:05.313Z,6.30
2019-02-26T08:41:06.393Z,3.97
2019-02-26T08:51:10.692Z,4.10
2019-02-26T09:01:15.800Z,3.87
2019-02-26T09:11:16.922Z,5.17
2019-02-26T09:21:20.448Z,4.20
2019-02-26T09:31:20.578Z,4.47
2019-02-26T09:41:21.559Z,5.00
2019-02-26T09:51:22.330Z,3.90
2019-02-26T10:01:22.991Z,5.43
2019-02-26T10:11:27.403Z,4.53
2019-02-26T10:21:26.318Z,4.40
2019-02-26T10:31:27.673Z,4.30
2019-02-26T10:41:31.481Z,4.60
2019-02-26T10:51:32.137Z,4.60
2019-02-26T11:01:33.708Z,5.13
2019-02-26T11:11:35.613Z,5.87
2019-02-26T11:21:40.375Z,4.40
2019-02-26T11:31:44.552Z,5.07
2019-02-26T11:41:44.988Z,5.33
2019-02-26T11:51:45.899Z,4.97
2019-02-26T12:01:46.566Z,4.50
2019-02-26T12:11:47.483Z,3.97
2019-02-26T12:21:49.527Z,1.90
2019-02-26T12:31:53.801Z,0.40
2019-02-26T12:41:53.599Z,3.07
2019-02-26T12:51:56.689Z,3.70
2019-02-26T13:01:57.056Z,3.70
2019-02-26T13:12:02.423Z,2.93
2019-02-26T13:22:06.742Z,1.73
2019-02-26T13:42:14.090Z,1.90
2019-02-26T13:52:13.359Z,0.70
2019-02-26T14:02:18.459Z,1.10
2019-02-26T14:12:19.100Z,1.40
2019-02-26T14:22:19.796Z,1.57
2019-02-26T14:32:20.738Z,0.50
2019-02-26T14:42:21.767Z,0.60
2019-02-26T14:52:22.928Z,1.40
2019-02-26T15:02:23.665Z,0.60
2019-02-26T15:12:24.680Z,0.20
2019-02-26T15:22:25.559Z,0.30
2019-02-26T15:32:26.215Z,0.70
2019-02-26T15:42:27.093Z,2.10
2019-02-26T15:52:27.847Z,2.10
2019-02-26T16:02:59.412Z,1.20
2019-02-26T16:23:21.754Z,0.67
2019-02-26T16:33:22.455Z,0.30
2019-02-26T16:43:23.098Z,0.20
2019-02-26T16:53:23.829Z,1.00
2019-02-26T17:03:24.504Z,6.60
2019-02-26T17:13:25.338Z,12.67
2019-02-26T17:23:26.589Z,12.90
2019-02-26T17:33:32.999Z,10.77
2019-02-26T17:43:36.678Z,15.80
2019-02-26T17:53:40.133Z,7.30
2019-02-26T18:03:44.657Z,1.87
2019-02-26T18:13:43.617Z,1.20
2019-02-26T18:23:44.252Z,1.27
2019-02-26T18:33:45.693Z,1.60
2019-02-26T18:43:47.544Z,1.27
2019-02-26T18:53:53.377Z,1.50
2019-02-26T19:03:54.286Z,2.27
2019-02-26T19:13:54.934Z,1.80
2019-02-26T19:23:58.589Z,2.20
2019-02-26T19:33:59.305Z,2.43
2019-02-26T19:44:00.693Z,2.00
2019-02-26T19:54:01.581Z,2.40
2019-02-26T20:04:02.327Z,2.07
2019-02-26T20:14:04.932Z,2.33
2019-02-26T20:24:05.729Z,6.23
2019-02-26T20:34:07.321Z,2.50
2019-02-26T20:44:10.164Z,3.37
2019-02-26T20:54:12.225Z,2.37
2019-02-26T21:04:13.002Z,3.10
2019-02-26T21:14:13.640Z,4.20
2019-02-26T21:24:14.558Z,2.43
2019-02-26T21:34:15.733Z,2.37
2019-02-26T21:44:16.641Z,2.80
2019-02-26T21:54:17.523Z,2.57
2019-02-26T22:04:18.178Z,2.80
2019-02-26T22:14:18.972Z,2.10
2019-02-26T22:24:23.591Z,1.87
2019-02-26T22:34:24.277Z,2.60
2019-02-26T22:44:24.886Z,2.30
2019-02-26T22:54:25.592Z,3.07
2019-02-26T23:04:26.271Z,2.47
2019-02-26T23:14:26.972Z,2.03
2019-02-26T23:24:28.469Z,2.07
2019-02-26T23:34:29.167Z,2.20
2019-02-26T23:44:33.026Z,2.50
2019-02-26T23:54:33.660Z,2.17
